Time;durP1;ratioP1;P1;durP2;ratioP2;P2;SDS_P1;SDS_P2;PMS_P1;PMS_P2;Temp;Humidity;BMP_temperature;BMP_pressure;BME280_temperature;BME280_humidity;BME280_pressure;Samples;Min_cycle;Max_cycle;Signal;HPM_P1;HPM_P2
2022/12/30 00:00:24;;;;;;;2.87;0.80;;;5.80;99.90;;;;;;5030484;28;20641;-74
2022/12/30 00:02:50;;;;;;;1.37;0.60;;;5.70;99.90;;;;;;5007506;28;20210;-75
2022/12/30 00:05:16;;;;;;;1.40;0.60;;;5.80;99.90;;;;;;5021972;28;20184;-75
2022/12/30 00:07:41;;;;;;;1.20;0.53;;;5.80;99.90;;;;;;5030709;28;20198;-76
2022/12/30 00:10:07;;;;;;;2.13;0.60;;;5.80;99.90;;;;;;5029836;28;20413;-76
2022/12/30 00:35:08;;;;;;;3.67;0.70;;;5.80;99.90;;;;;;5030688;28;20472;-75
2022/12/30 00:37:34;;;;;;;1.67;0.50;;;5.80;99.90;;;;;;5030034;28;20471;-75
2022/12/30 00:39:59;;;;;;;1.10;0.40;;;5.80;99.90;;;;;;5029809;28;20449;-74
2022/12/30 00:45:09;;;;;;;1.30;0.60;;;5.70;99.90;;;;;;5030627;28;20232;-75
2022/12/30 00:47:35;;;;;;;1.20;0.50;;;5.80;99.90;;;;;;5033540;28;20449;-75
2022/12/30 00:58:14;;;;;;;1.20;0.50;;;5.80;99.90;;;;;;5024188;28;20510;-76
2022/12/30 01:00:39;;;;;;;1.10;0.40;;;5.80;99.90;;;;;;5029831;28;20471;-75
2022/12/30 01:03:05;;;;;;;1.60;0.60;;;5.80;99.90;;;;;;5013775;28;20214;-74
2022/12/30 01:05:30;;;;;;;1.10;0.40;;;5.70;99.90;;;;;;5023318;28;20253;-76
2022/12/30 01:07:56;;;;;;;1.20;0.57;;;5.70;99.90;;;;;;5029752;28;20211;-76
2022/12/30 01:10:21;;;;;;;1.10;0.40;;;5.70;99.90;;;;;;5030428;28;20182;-78
2022/12/30 01:12:47;;;;;;;1.30;0.50;;;5.60;99.90;;;;;;5024124;28;20217;-76
2022/12/30 01:15:13;;;;;;;1.10;0.40;;;5.60;99.90;;;;;;5009987;28;20199;-74
2022/12/30 01:17:39;;;;;;;1.10;0.50;;;5.60;99.90;;;;;;5015505;28;20217;-75
2022/12/30 01:20:06;;;;;;;1.10;0.60;;;5.60;99.90;;;;;;5017022;28;20424;-75
2022/12/30 01:22:31;;;;;;;1.20;0.53;;;5.60;99.90;;;;;;5009006;28;20203;-75
2022/12/30 01:24:57;;;;;;;1.20;0.50;;;5.50;99.90;;;;;;5014606;28;20926;-75
2022/12/30 01:27:23;;;;;;;1.10;0.47;;;5.50;99.90;;;;;;5019395;28;20198;-74
2022/12/30 01:29:49;;;;;;;1.73;0.60;;;5.50;99.90;;;;;;5015983;28;20182;-76
2022/12/30 01:32:20;;;;;;;1.47;0.53;;;5.50;99.90;;;;;;5027084;28;20186;-75
2022/12/30 01:34:46;;;;;;;1.23;0.60;;;5.60;99.90;;;;;;5027040;28;20990;-76
2022/12/30 01:37:13;;;;;;;1.40;0.60;;;5.50;99.90;;;;;;5033543;28;20944;-77
2022/12/30 01:39:40;;;;;;;3.10;0.70;;;5.50;99.90;;;;;;5033871;28;20421;-75
2022/12/30 01:42:29;;;;;;;2.07;0.80;;;5.50;99.90;;;;;;5032706;28;20445;-75
2022/12/30 01:45:02;;;;;;;1.33;0.60;;;5.50;99.90;;;;;;5034457;28;20459;-75
2022/12/30 01:47:42;;;;;;;2.90;0.80;;;5.40;99.90;;;;;;5006113;28;20450;-75
2022/12/30 01:50:10;;;;;;;1.50;0.90;;;5.40;99.90;;;;;;5034044;28;20412;-76
2022/12/30 01:52:56;;;;;;;3.10;1.10;;;5.40;99.90;;;;;;5004203;28;20445;-75
2022/12/30 01:55:34;;;;;;;2.07;0.80;;;5.30;99.90;;;;;;5034673;28;20428;-75
2022/12/30 01:58:03;;;;;;;2.60;0.80;;;5.20;99.90;;;;;;5034977;28;20484;-75
2022/12/30 02:00:28;;;;;;;1.20;0.50;;;5.20;99.90;;;;;;5024417;28;20426;-75
2022/12/30 02:02:55;;;;;;;1.10;0.50;;;5.20;99.90;;;;;;5027442;28;20627;-74
2022/12/30 02:05:26;;;;;;;1.60;0.80;;;5.20;99.90;;;;;;5044269;28;20194;-80
2022/12/30 02:08:12;;;;;;;1.80;1.20;;;5.20;99.90;;;;;;5041393;28;20457;-77
2022/12/30 02:10:40;;;;;;;1.27;0.47;;;5.20;99.90;;;;;;5025879;28;20414;-79
2022/12/30 02:13:10;;;;;;;1.10;0.50;;;5.10;99.90;;;;;;5060823;28;20404;-78
2022/12/30 02:15:45;;;;;;;4.27;0.70;;;5.10;99.90;;;;;;5043682;28;20422;-75
2022/12/30 02:19:04;;;;;;;1.47;0.60;;;5.10;99.90;;;;;;5026077;28;20432;-75
2022/12/30 02:21:56;;;;;;;5.10;0.60;;;5.10;99.90;;;;;;4932625;29;20946;-76
2022/12/30 02:24:27;;;;;;;1.20;0.50;;;5.00;99.90;;;;;;5020432;28;20424;-76
2022/12/30 02:27:29;;;;;;;4.60;0.70;;;5.00;99.90;;;;;;5030383;28;20436;-76
2022/12/30 02:30:24;;;;;;;2.73;0.80;;;5.00;99.90;;;;;;4999763;28;20423;-76
2022/12/30 02:33:08;;;;;;;1.10;0.50;;;5.00;99.90;;;;;;5022385;28;20417;-75
2022/12/30 02:35:45;;;;;;;1.10;0.50;;;4.90;99.90;;;;;;5032784;28;20448;-74
2022/12/30 02:38:33;;;;;;;1.67;0.60;;;4.90;99.90;;;;;;5032243;28;20437;-76
2022/12/30 02:46:41;;;;;;;1.30;0.57;;;4.80;99.90;;;;;;5032803;28;20822;-76
2022/12/30 02:49:10;;;;;;;1.10;0.50;;;4.80;99.90;;;;;;5032149;28;20424;-76
2022/12/30 02:54:21;;;;;;;1.87;0.80;;;4.70;99.90;;;;;;5017055;28;20424;-76
2022/12/30 02:56:52;;;;;;;1.10;0.43;;;4.70;99.90;;;;;;5020623;28;20532;-75
2022/12/30 03:05:42;;;;;;;1.10;0.40;;;4.50;99.90;;;;;;5031845;28;20412;-77
2022/12/30 03:08:44;;;;;;;2.60;0.57;;;4.50;99.90;;;;;;5031714;28;20936;-76
2022/12/30 03:11:17;;;;;;;2.30;0.83;;;4.50;99.90;;;;;;5031305;28;20473;-77
2022/12/30 03:14:12;;;;;;;1.47;0.60;;;4.50;99.90;;;;;;5024851;28;20432;-77
2022/12/30 03:16:53;;;;;;;1.30;0.60;;;4.50;99.90;;;;;;4973931;28;20525;-76
2022/12/30 03:19:23;;;;;;;1.10;0.50;;;4.40;99.90;;;;;;4998560;28;20965;-75
2022/12/30 03:21:51;;;;;;;1.30;0.50;;;4.40;99.90;;;;;;5014895;28;20466;-76
2022/12/30 03:27:09;;;;;;;1.60;0.83;;;4.40;99.90;;;;;;5027471;28;20428;-76
2022/12/30 03:29:44;;;;;;;1.87;0.70;;;4.30;99.90;;;;;;5013241;28;20826;-76
2022/12/30 03:32:13;;;;;;;1.93;0.80;;;4.30;99.90;;;;;;5030918;28;20451;-77
2022/12/30 03:34:39;;;;;;;1.10;0.40;;;4.40;99.90;;;;;;5018092;28;20423;-76
2022/12/30 03:37:28;;;;;;;1.00;0.40;;;4.30;99.90;;;;;;5021278;28;20474;-75
2022/12/30 03:40:06;;;;;;;1.10;0.50;;;4.30;99.90;;;;;;5030341;28;20847;-77
2022/12/30 03:42:32;;;;;;;1.60;0.60;;;4.30;99.90;;;;;;5030386;28;20549;-76
2022/12/30 03:44:58;;;;;;;1.30;0.50;;;4.30;99.90;;;;;;5030440;28;20456;-76
2022/12/30 03:47:24;;;;;;;1.57;0.73;;;4.30;99.90;;;;;;5030820;28;20276;-75
2022/12/30 03:49:50;;;;;;;1.20;0.50;;;4.20;99.90;;;;;;5030672;28;20931;-76
2022/12/30 03:52:18;;;;;;;1.30;0.50;;;4.30;99.90;;;;;;5022969;28;20852;-76
2022/12/30 03:54:44;;;;;;;1.60;0.60;;;4.20;99.90;;;;;;4999419;28;20214;-76
2022/12/30 03:57:10;;;;;;;1.50;0.57;;;4.20;99.90;;;;;;5030830;28;20836;-75
2022/12/30 03:59:35;;;;;;;1.23;0.50;;;4.10;99.90;;;;;;5030267;28;20674;-76
2022/12/30 04:02:01;;;;;;;5.07;0.80;;;4.00;99.90;;;;;;5002163;28;20193;-77
2022/12/30 04:04:26;;;;;;;1.10;0.50;;;4.00;99.90;;;;;;5023253;28;20213;-75
2022/12/30 04:06:52;;;;;;;1.00;0.40;;;4.00;99.90;;;;;;5027530;28;20206;-76
2022/12/30 04:09:18;;;;;;;1.10;0.50;;;4.00;99.90;;;;;;5030006;28;20931;-76
2022/12/30 04:11:44;;;;;;;1.10;0.40;;;4.00;99.90;;;;;;5029976;28;20179;-76
2022/12/30 04:14:10;;;;;;;1.10;0.57;;;4.00;99.90;;;;;;5025980;28;20421;-76
2022/12/30 04:16:36;;;;;;;1.27;0.50;;;4.00;99.90;;;;;;5010864;28;20302;-77
2022/12/30 04:19:02;;;;;;;1.83;0.73;;;3.90;99.90;;;;;;5025895;28;20512;-78
2022/12/30 04:21:27;;;;;;;1.10;0.50;;;4.00;99.90;;;;;;5025652;28;20889;-75
2022/12/30 04:23:53;;;;;;;1.10;0.50;;;4.00;99.90;;;;;;5029798;28;20460;-76
2022/12/30 04:26:18;;;;;;;1.10;0.40;;;4.00;99.90;;;;;;5030227;28;20178;-79
2022/12/30 04:28:44;;;;;;;1.10;0.40;;;4.00;99.90;;;;;;5030200;28;20189;-76
2022/12/30 04:31:09;;;;;;;1.60;0.60;;;4.00;99.90;;;;;;5012204;28;20182;-76
2022/12/30 04:33:35;;;;;;;1.30;0.60;;;4.00;99.90;;;;;;5029214;28;20560;-76
2022/12/30 04:36:01;;;;;;;1.30;0.60;;;3.90;99.90;;;;;;5005830;28;20191;-75
2022/12/30 04:38:26;;;;;;;1.20;0.50;;;3.90;99.90;;;;;;5008164;28;20194;-76
2022/12/30 04:40:53;;;;;;;1.00;0.40;;;3.90;99.90;;;;;;5029981;28;20222;-75
2022/12/30 04:43:18;;;;;;;1.30;0.73;;;3.90;99.90;;;;;;5016310;28;20266;-76
2022/12/30 04:45:44;;;;;;;1.10;0.50;;;3.90;99.90;;;;;;5011959;28;20425;-75
2022/12/30 04:48:10;;;;;;;1.20;0.50;;;3.90;99.90;;;;;;5011868;28;20206;-76
2022/12/30 04:50:35;;;;;;;1.53;0.70;;;3.90;99.90;;;;;;5029604;28;20274;-77
2022/12/30 04:53:01;;;;;;;1.10;0.50;;;3.90;99.90;;;;;;5017018;28;20205;-75
2022/12/30 04:55:27;;;;;;;1.60;0.60;;;4.00;99.90;;;;;;5029544;28;20182;-76
2022/12/30 04:57:52;;;;;;;1.10;0.40;;;4.00;99.90;;;;;;5029580;28;20256;-77
2022/12/30 05:00:18;;;;;;;1.10;0.50;;;4.00;99.90;;;;;;5029459;28;20190;-76
2022/12/30 05:02:44;;;;;;;2.33;0.80;;;4.00;99.90;;;;;;5019656;28;20572;-76
2022/12/30 05:05:09;;;;;;;1.17;0.60;;;4.00;99.90;;;;;;5012365;28;20195;-76
2022/12/30 05:07:35;;;;;;;1.17;0.50;;;4.00;99.90;;;;;;5027026;28;20194;-77
2022/12/30 05:10:01;;;;;;;1.17;0.53;;;3.90;99.90;;;;;;5029674;28;20189;-76
2022/12/30 05:12:26;;;;;;;1.10;0.50;;;3.90;99.90;;;;;;5028683;28;20190;-77
2022/12/30 05:14:52;;;;;;;1.10;0.50;;;3.90;99.90;;;;;;5019341;28;20183;-76
2022/12/30 05:17:17;;;;;;;1.10;0.40;;;3.90;99.90;;;;;;5025604;28;20210;-76
2022/12/30 05:19:43;;;;;;;1.10;0.50;;;3.90;99.90;;;;;;5027880;28;20236;-77
2022/12/30 05:22:08;;;;;;;1.67;0.50;;;3.90;99.90;;;;;;5025096;28;20195;-77
2022/12/30 05:27:19;;;;;;;3.43;0.80;;;3.90;99.90;;;;;;5018120;28;20229;-77
2022/12/30 05:29:44;;;;;;;1.10;0.50;;;3.90;99.90;;;;;;5011392;28;20988;-76
2022/12/30 05:32:10;;;;;;;1.10;0.50;;;3.90;99.90;;;;;;5024019;28;20179;-77
2022/12/30 05:34:35;;;;;;;1.10;0.50;;;3.90;99.90;;;;;;5003501;28;20576;-76
2022/12/30 05:37:01;;;;;;;1.20;0.50;;;3.80;99.90;;;;;;4993683;28;20264;-77
2022/12/30 05:39:27;;;;;;;2.63;0.70;;;3.80;99.90;;;;;;5020807;28;20688;-76
2022/12/30 05:41:52;;;;;;;1.10;0.50;;;3.80;99.90;;;;;;5011186;28;20668;-76
2022/12/30 05:44:18;;;;;;;1.20;0.50;;;3.80;99.90;;;;;;5029576;28;20226;-76
2022/12/30 05:46:43;;;;;;;2.80;0.60;;;3.80;99.90;;;;;;5013860;28;20293;-76
2022/12/30 05:49:09;;;;;;;1.43;0.73;;;3.80;99.90;;;;;;5019881;28;20815;-76
2022/12/30 05:51:35;;;;;;;1.10;0.50;;;3.80;99.90;;;;;;5022068;28;20179;-77
2022/12/30 05:54:00;;;;;;;1.87;0.50;;;3.80;99.90;;;;;;5011246;28;20285;-76
2022/12/30 05:56:26;;;;;;;1.43;0.70;;;3.70;99.90;;;;;;5025258;28;20225;-77
2022/12/30 05:58:51;;;;;;;2.80;0.70;;;3.60;99.90;;;;;;5030024;28;20225;-75
2022/12/30 06:01:17;;;;;;;1.30;0.60;;;3.60;99.90;;;;;;5015501;28;20193;-76
2022/12/30 06:03:43;;;;;;;1.70;0.60;;;3.50;99.90;;;;;;5005064;28;20215;-76
2022/12/30 06:06:09;;;;;;;2.03;1.00;;;3.50;99.90;;;;;;5026038;28;20704;-76
2022/12/30 06:08:36;;;;;;;1.97;0.57;;;3.40;99.90;;;;;;5030768;28;20273;-76
2022/12/30 06:11:03;;;;;;;2.80;0.90;;;3.30;99.90;;;;;;5027867;28;20965;-76
2022/12/30 06:13:29;;;;;;;1.30;0.60;;;3.30;99.90;;;;;;5012905;28;20429;-76
2022/12/30 06:15:54;;;;;;;2.27;0.70;;;3.20;99.90;;;;;;5018279;28;20941;-76
2022/12/30 06:18:20;;;;;;;1.30;0.70;;;3.20;99.90;;;;;;5033327;28;20210;-76
2022/12/30 06:20:46;;;;;;;1.30;0.80;;;3.10;99.90;;;;;;5026249;28;20195;-74
2022/12/30 06:23:13;;;;;;;1.30;0.70;;;3.10;99.90;;;;;;5006283;28;20644;-78
2022/12/30 06:25:38;;;;;;;1.20;0.57;;;3.00;99.90;;;;;;5031129;28;20837;-76
2022/12/30 06:28:04;;;;;;;2.37;0.53;;;3.00;99.90;;;;;;5008273;28;20507;-76
2022/12/30 06:30:30;;;;;;;2.53;1.10;;;2.90;99.90;;;;;;5014580;28;20668;-75
2022/12/30 06:32:56;;;;;;;1.40;0.90;;;2.80;99.90;;;;;;5004852;28;20509;-76
2022/12/30 06:35:22;;;;;;;3.00;1.40;;;2.80;99.90;;;;;;5014049;28;20190;-76
2022/12/30 06:37:48;;;;;;;1.80;0.77;;;2.80;99.90;;;;;;5022703;28;20446;-77
2022/12/30 06:40:13;;;;;;;2.47;1.07;;;2.90;99.90;;;;;;5031334;28;20190;-76
2022/12/30 06:42:39;;;;;;;2.07;1.00;;;2.90;99.90;;;;;;5034020;28;20283;-76
2022/12/30 06:45:05;;;;;;;1.57;0.90;;;2.80;99.90;;;;;;5020680;28;20197;-77
2022/12/30 06:47:31;;;;;;;2.07;0.70;;;2.80;99.90;;;;;;5016175;28;20253;-77
2022/12/30 06:49:57;;;;;;;4.73;0.90;;;2.70;99.90;;;;;;5032871;28;21104;-77
2022/12/30 06:52:22;;;;;;;3.27;1.50;;;2.60;99.90;;;;;;5021335;28;20202;-77
2022/12/30 06:54:48;;;;;;;1.50;0.80;;;2.60;99.90;;;;;;5031238;28;20429;-76
2022/12/30 06:57:14;;;;;;;4.73;1.53;;;2.60;99.90;;;;;;5029698;28;20657;-75
2022/12/30 06:59:39;;;;;;;7.57;0.90;;;2.50;99.90;;;;;;5032353;28;20197;-76
2022/12/30 07:02:05;;;;;;;3.00;0.93;;;2.40;99.90;;;;;;5024609;28;20651;-78
2022/12/30 07:04:31;;;;;;;1.70;0.90;;;2.40;99.90;;;;;;5013197;28;20182;-79
2022/12/30 07:06:57;;;;;;;2.57;1.00;;;2.40;99.90;;;;;;5015469;28;20452;-77
2022/12/30 07:09:22;;;;;;;3.30;0.97;;;2.40;99.90;;;;;;5033639;28;20630;-76
2022/12/30 07:11:48;;;;;;;3.03;1.27;;;2.40;99.90;;;;;;5022633;28;20701;-76
2022/12/30 07:14:14;;;;;;;1.87;0.90;;;2.40;99.90;;;;;;5016099;28;20198;-79
2022/12/30 07:16:39;;;;;;;1.10;0.40;;;2.40;99.90;;;;;;5027744;28;20191;-76
2022/12/30 07:19:05;;;;;;;1.67;0.77;;;2.40;99.90;;;;;;5046746;28;20245;-74
2022/12/30 07:21:31;;;;;;;1.20;0.60;;;2.30;99.90;;;;;;5018058;28;20245;-76
2022/12/30 07:23:56;;;;;;;2.40;1.17;;;2.30;99.90;;;;;;5025964;28;20537;-77
2022/12/30 07:26:22;;;;;;;2.00;1.10;;;2.20;99.90;;;;;;5024491;28;20198;-76
2022/12/30 07:28:47;;;;;;;2.17;0.90;;;2.20;99.90;;;;;;5028694;28;20270;-76
2022/12/30 07:31:13;;;;;;;1.30;0.73;;;2.20;99.90;;;;;;5011832;28;20183;-75
2022/12/30 07:33:39;;;;;;;1.30;0.60;;;2.20;99.90;;;;;;4997389;28;20194;-76
2022/12/30 07:36:04;;;;;;;1.50;0.90;;;2.20;99.90;;;;;;5003928;28;20595;-77
2022/12/30 07:38:30;;;;;;;6.90;0.70;;;2.20;99.90;;;;;;4997690;28;20198;-73
2022/12/30 07:40:56;;;;;;;2.60;1.00;;;2.20;99.90;;;;;;5031776;28;20196;-74
2022/12/30 07:43:21;;;;;;;2.03;0.70;;;2.20;99.90;;;;;;5031256;28;20209;-73
2022/12/30 07:45:47;;;;;;;11.80;0.87;;;2.30;99.90;;;;;;5031946;28;20187;-77
2022/12/30 07:48:12;;;;;;;1.60;0.90;;;2.40;99.90;;;;;;5013804;28;20575;-74
2022/12/30 07:50:39;;;;;;;1.70;0.80;;;2.40;99.90;;;;;;5003520;28;20306;-71
2022/12/30 07:53:04;;;;;;;2.70;1.27;;;2.40;99.90;;;;;;5013688;28;20555;-75
2022/12/30 07:55:30;;;;;;;2.07;0.97;;;2.60;99.90;;;;;;4997983;28;20436;-75
2022/12/30 07:57:57;;;;;;;3.63;1.50;;;2.70;99.90;;;;;;5017216;28;20293;-75
2022/12/30 08:00:22;;;;;;;1.20;0.60;;;2.80;99.90;;;;;;5020856;28;20731;-76
2022/12/30 08:02:48;;;;;;;3.87;0.70;;;2.90;99.90;;;;;;5015639;28;20552;-75
2022/12/30 08:05:14;;;;;;;4.00;1.10;;;2.90;99.90;;;;;;5015089;28;20183;-76
2022/12/30 08:07:39;;;;;;;2.07;0.90;;;3.00;99.90;;;;;;5023557;28;20217;-75
2022/12/30 08:10:05;;;;;;;1.83;1.03;;;3.20;99.90;;;;;;5022307;28;20650;-75
2022/12/30 08:12:34;;;;;;;3.47;1.17;;;3.20;99.90;;;;;;5020583;28;20190;-77
2022/12/30 08:14:59;;;;;;;5.13;1.23;;;3.30;99.90;;;;;;5019719;28;20425;-76
2022/12/30 08:17:27;;;;;;;1.80;0.80;;;3.30;99.90;;;;;;5010780;28;20464;-76
2022/12/30 08:19:53;;;;;;;2.50;1.00;;;3.40;99.90;;;;;;5001838;28;20616;-75
2022/12/30 08:22:18;;;;;;;2.07;0.80;;;3.50;99.90;;;;;;5008036;28;20442;-76
2022/12/30 08:24:44;;;;;;;1.80;0.90;;;3.60;99.90;;;;;;5007852;28;20784;-76
2022/12/30 08:27:09;;;;;;;1.70;0.70;;;3.70;99.90;;;;;;5028015;28;20203;-76
2022/12/30 08:29:35;;;;;;;1.77;1.00;;;3.70;99.90;;;;;;5021733;28;20189;-74
2022/12/30 08:32:01;;;;;;;5.20;1.50;;;3.80;99.90;;;;;;5029893;28;20252;-75
2022/12/30 08:34:26;;;;;;;1.47;0.97;;;3.90;99.90;;;;;;5020203;28;20202;-75
2022/12/30 08:36:52;;;;;;;5.47;1.70;;;3.90;99.90;;;;;;5024110;28;20658;-76
2022/12/30 08:39:18;;;;;;;1.70;1.00;;;4.00;99.90;;;;;;5017883;28;20186;-77
2022/12/30 08:41:46;;;;;;;4.03;1.43;;;4.10;99.90;;;;;;5029567;28;20457;-75
2022/12/30 08:44:12;;;;;;;1.90;1.00;;;4.10;99.90;;;;;;5029205;28;20203;-75
2022/12/30 08:46:39;;;;;;;1.60;0.90;;;4.20;99.90;;;;;;5030235;28;20437;-77
2022/12/30 08:49:07;;;;;;;2.27;1.00;;;4.30;99.90;;;;;;5030670;28;20780;-75
2022/12/30 08:51:33;;;;;;;1.80;0.80;;;4.40;99.90;;;;;;5024617;28;21169;-78
2022/12/30 08:53:59;;;;;;;2.10;0.97;;;4.50;99.90;;;;;;5021855;28;20425;-76
2022/12/30 08:56:27;;;;;;;1.53;0.70;;;4.60;99.90;;;;;;5029867;28;20453;-78
2022/12/30 08:58:54;;;;;;;1.33;0.83;;;4.70;99.90;;;;;;5030127;28;20277;-75
2022/12/30 09:01:40;;;;;;;1.20;0.50;;;4.70;99.90;;;;;;5027884;28;20523;-76
2022/12/30 09:04:06;;;;;;;1.40;0.70;;;4.80;99.90;;;;;;5005822;28;20471;-75
2022/12/30 09:06:33;;;;;;;1.70;0.90;;;4.90;99.90;;;;;;5004584;28;21156;-76
2022/12/30 09:09:00;;;;;;;1.40;0.80;;;5.00;99.90;;;;;;5010508;28;20933;-75
2022/12/30 09:11:32;;;;;;;1.63;0.63;;;5.00;99.90;;;;;;5015362;28;20520;-75
2022/12/30 09:14:00;;;;;;;1.93;0.70;;;5.00;99.90;;;;;;5019499;28;20464;-77
2022/12/30 09:16:26;;;;;;;1.93;0.83;;;5.10;99.90;;;;;;4997344;28;20486;-71
2022/12/30 09:18:52;;;;;;;1.90;1.07;;;5.10;99.90;;;;;;5003880;28;20841;-76
2022/12/30 09:21:19;;;;;;;1.47;0.70;;;5.10;99.90;;;;;;5005468;28;20939;-75
2022/12/30 09:23:45;;;;;;;1.83;0.80;;;5.20;99.90;;;;;;5023072;28;20464;-76
2022/12/30 09:26:18;;;;;;;3.87;0.90;;;5.30;99.90;;;;;;5001110;28;20796;-75
2022/12/30 09:28:44;;;;;;;2.30;0.80;;;5.30;99.90;;;;;;5027501;28;20640;-76
2022/12/30 09:31:11;;;;;;;2.50;1.30;;;5.40;99.90;;;;;;5012313;28;20925;-75
2022/12/30 09:33:36;;;;;;;1.30;0.70;;;5.40;99.90;;;;;;4995404;28;20428;-76
2022/12/30 09:36:02;;;;;;;4.57;0.90;;;5.40;99.90;;;;;;5012077;28;20425;-77
2022/12/30 09:38:28;;;;;;;2.33;1.10;;;5.50;99.90;;;;;;5029774;28;20261;-77
2022/12/30 09:41:06;;;;;;;3.40;0.80;;;5.50;99.90;;;;;;5021388;28;20191;-75
2022/12/30 09:43:59;;;;;;;1.30;0.63;;;5.60;99.90;;;;;;5017460;28;20268;-75
2022/12/30 09:46:36;;;;;;;1.20;0.53;;;5.70;99.90;;;;;;5028653;28;20494;-76
2022/12/30 09:49:04;;;;;;;1.50;0.60;;;5.70;99.90;;;;;;5033570;28;20456;-76
2022/12/30 09:52:03;;;;;;;3.47;1.37;;;5.80;99.90;;;;;;5006863;28;20426;-76
2022/12/30 09:54:30;;;;;;;2.17;0.83;;;5.90;99.90;;;;;;4983111;28;20448;-76
2022/12/30 09:57:30;;;;;;;1.57;0.73;;;6.00;99.90;;;;;;4996181;28;20442;-76
2022/12/30 09:59:51;;;;;;;1.60;0.90;;;6.10;99.90;;;;;;5031430;28;20479;-73
2022/12/30 10:02:22;;;;;;;1.87;0.80;;;6.10;99.90;;;;;;5001266;28;20964;-74
2022/12/30 10:04:48;;;;;;;3.20;0.77;;;6.20;99.90;;;;;;5003316;28;20435;-75
2022/12/30 10:07:18;;;;;;;2.27;1.10;;;6.30;99.90;;;;;;5032636;28;21654;-75
2022/12/30 10:09:59;;;;;;;1.70;0.90;;;6.30;99.90;;;;;;5008712;28;20425;-74
2022/12/30 10:12:36;;;;;;;1.10;0.50;;;6.40;99.90;;;;;;5015367;28;20992;-73
2022/12/30 10:15:04;;;;;;;3.90;1.10;;;6.50;99.90;;;;;;4994546;28;20510;-76
2022/12/30 10:17:53;;;;;;;2.30;0.87;;;6.50;99.90;;;;;;5012971;28;20437;-74
2022/12/30 10:20:38;;;;;;;1.93;0.80;;;6.60;99.90;;;;;;5019878;28;20976;-74
2022/12/30 10:23:33;;;;;;;13.23;1.33;;;6.70;99.90;;;;;;5012908;28;20453;-75
2022/12/30 10:26:20;;;;;;;1.93;0.70;;;6.70;99.90;;;;;;5012422;28;20836;-74
2022/12/30 10:28:51;;;;;;;8.80;1.10;;;6.80;99.90;;;;;;5034730;28;21121;-75
2022/12/30 10:31:23;;;;;;;1.10;0.50;;;6.90;99.90;;;;;;5034523;28;20423;-76
2022/12/30 10:33:52;;;;;;;2.17;1.13;;;6.90;99.90;;;;;;5031617;28;20559;-76
2022/12/30 10:36:29;;;;;;;1.20;0.60;;;7.10;99.90;;;;;;5034231;28;20429;-75
2022/12/30 10:39:16;;;;;;;1.30;0.60;;;7.10;99.90;;;;;;5032409;28;20432;-76
2022/12/30 10:42:02;;;;;;;2.13;1.10;;;7.20;99.90;;;;;;5030903;28;20457;-75
2022/12/30 10:44:46;;;;;;;1.77;0.73;;;7.30;99.90;;;;;;5022539;28;20503;-76
2022/12/30 10:47:38;;;;;;;1.50;0.70;;;7.30;99.90;;;;;;5016614;28;20540;-76
2022/12/30 10:50:20;;;;;;;1.20;0.50;;;7.40;99.90;;;;;;5029199;28;20409;-76
2022/12/30 10:52:46;;;;;;;2.80;0.97;;;7.30;99.90;;;;;;4983621;28;20446;-75
2022/12/30 10:55:22;;;;;;;1.10;0.50;;;7.50;99.90;;;;;;4997270;28;20471;-75
2022/12/30 10:57:50;;;;;;;1.30;0.70;;;7.60;99.90;;;;;;5015299;28;21291;-72
2022/12/30 11:00:17;;;;;;;1.10;0.50;;;7.60;99.90;;;;;;4999079;28;21060;-74
2022/12/30 11:02:56;;;;;;;1.30;0.60;;;7.70;99.90;;;;;;4992647;28;20511;-75
2022/12/30 11:05:34;;;;;;;1.97;0.87;;;7.80;99.90;;;;;;4993506;28;20777;-73
2022/12/30 11:08:03;;;;;;;1.20;0.60;;;7.90;99.90;;;;;;4986788;28;20449;-74
2022/12/30 11:10:29;;;;;;;1.10;0.50;;;7.90;99.90;;;;;;5010378;28;20556;-74
2022/12/30 11:16:00;;;;;;;1.40;0.50;;;7.90;99.90;;;;;;4995262;28;20456;-75
2022/12/30 11:18:30;;;;;;;1.30;0.60;;;8.00;99.90;;;;;;5003225;28;20449;-72
2022/12/30 11:20:58;;;;;;;1.70;0.77;;;8.10;99.90;;;;;;4999431;28;20424;-75
2022/12/30 11:23:37;;;;;;;1.83;0.70;;;8.10;99.90;;;;;;5009583;28;20464;-76
2022/12/30 11:26:07;;;;;;;1.40;0.60;;;8.30;99.90;;;;;;5013844;28;20424;-75
2022/12/30 11:28:46;;;;;;;1.40;0.60;;;8.20;99.90;;;;;;5012101;28;20429;-76
2022/12/30 11:31:13;;;;;;;1.27;0.63;;;8.20;99.90;;;;;;5031965;28;20959;-75
2022/12/30 11:33:50;;;;;;;2.10;0.80;;;8.10;99.90;;;;;;5029830;28;20491;-76
2022/12/30 11:36:19;;;;;;;1.27;0.63;;;8.10;99.90;;;;;;5015207;28;20433;-75
2022/12/30 11:38:50;;;;;;;1.60;0.90;;;8.00;99.90;;;;;;5028530;28;20425;-76
2022/12/30 11:41:22;;;;;;;1.20;0.60;;;8.00;99.90;;;;;;5009920;28;20433;-76
2022/12/30 11:44:09;;;;;;;1.20;0.50;;;8.00;99.90;;;;;;5017983;28;20475;-75
2022/12/30 11:46:45;;;;;;;1.60;0.70;;;8.00;99.90;;;;;;5031717;28;20469;-80
2022/12/30 11:49:47;;;;;;;2.40;0.87;;;8.20;99.90;;;;;;5041290;28;20439;-78
2022/12/30 11:52:20;;;;;;;2.23;0.60;;;8.10;99.90;;;;;;5034462;28;20521;-82
2022/12/30 11:54:50;;;;;;;2.27;0.80;;;8.00;99.90;;;;;;5039282;28;20417;-78
2022/12/30 11:57:25;;;;;;;1.40;0.73;;;8.00;99.90;;;;;;5031896;28;20460;-76
2022/12/30 11:59:54;;;;;;;2.43;1.03;;;7.90;99.90;;;;;;5008466;28;20528;-76
2022/12/30 12:02:23;;;;;;;3.67;0.90;;;7.80;99.90;;;;;;5018940;28;20930;-76
2022/12/30 12:04:49;;;;;;;1.93;1.03;;;7.80;99.90;;;;;;5030950;28;20424;-75
2022/12/30 12:07:20;;;;;;;1.70;0.80;;;7.70;99.90;;;;;;5028747;28;20464;-75
2022/12/30 12:10:01;;;;;;;1.67;0.93;;;7.60;99.90;;;;;;5018995;28;20467;-76
2022/12/30 12:12:52;;;;;;;1.63;0.93;;;7.60;99.90;;;;;;5029936;28;20483;-75
2022/12/30 12:15:36;;;;;;;2.27;1.07;;;7.60;99.90;;;;;;4987551;28;20432;-75
2022/12/30 12:18:21;;;;;;;5.03;0.90;;;7.60;99.90;;;;;;5012081;28;20438;-76
2022/12/30 12:21:15;;;;;;;1.20;0.50;;;7.50;99.90;;;;;;5006396;28;20429;-76
2022/12/30 12:23:46;;;;;;;2.23;1.00;;;7.50;99.90;;;;;;5011482;28;20551;-75
2022/12/30 12:26:12;;;;;;;1.57;0.67;;;7.50;99.90;;;;;;5029994;28;20484;-76
2022/12/30 12:28:41;;;;;;;1.40;0.70;;;7.50;99.90;;;;;;5030028;28;20939;-76
2022/12/30 12:31:35;;;;;;;2.03;0.70;;;7.50;99.90;;;;;;5029397;28;20182;-74
2022/12/30 12:34:18;;;;;;;3.10;1.20;;;7.50;99.90;;;;;;5002997;28;20558;-75
2022/12/30 12:36:47;;;;;;;4.20;1.53;;;7.50;99.90;;;;;;4987693;28;20994;-76
2022/12/30 12:39:30;;;;;;;6.47;2.37;;;7.50;99.90;;;;;;5017343;28;20417;-75
2022/12/30 12:42:02;;;;;;;2.07;1.07;;;7.50;99.90;;;;;;5010697;28;20974;-76
2022/12/30 12:44:43;;;;;;;3.50;1.10;;;7.50;99.90;;;;;;5028975;28;20975;-75
2022/12/30 12:47:27;;;;;;;4.13;1.10;;;7.60;99.90;;;;;;5029324;28;20936;-76
2022/12/30 12:50:13;;;;;;;1.80;0.87;;;7.60;99.90;;;;;;5029305;28;20955;-76
2022/12/30 12:52:55;;;;;;;1.93;0.80;;;7.60;99.90;;;;;;5006012;28;20460;-76
2022/12/30 12:55:24;;;;;;;1.73;0.77;;;7.60;99.90;;;;;;5002377;28;20417;-74
2022/12/30 12:58:00;;;;;;;1.40;0.70;;;7.60;99.90;;;;;;5026517;28;20941;-75
2022/12/30 13:00:41;;;;;;;1.20;0.53;;;7.60;99.90;;;;;;5026055;28;20450;-75
2022/12/30 13:03:31;;;;;;;1.40;0.70;;;7.60;99.90;;;;;;5029387;28;20475;-76
2022/12/30 13:06:22;;;;;;;3.30;0.80;;;7.60;99.90;;;;;;5038329;28;20860;-75
2022/12/30 13:09:00;;;;;;;1.90;0.67;;;7.70;99.90;;;;;;5024430;28;20441;-75
2022/12/30 13:11:42;;;;;;;1.40;0.50;;;7.80;99.90;;;;;;5026539;28;20471;-75
2022/12/30 13:14:35;;;;;;;1.60;0.50;;;7.80;99.90;;;;;;5021589;28;20458;-75
2022/12/30 13:17:09;;;;;;;1.57;0.70;;;7.80;99.90;;;;;;5015780;28;20781;-75
2022/12/30 13:19:36;;;;;;;1.20;0.60;;;7.90;99.90;;;;;;5018519;28;20852;-75
2022/12/30 13:22:13;;;;;;;1.30;0.60;;;8.00;99.90;;;;;;5013761;28;20520;-75
2022/12/30 13:24:45;;;;;;;2.23;0.77;;;8.00;99.90;;;;;;5022004;28;20487;-75
2022/12/30 13:27:27;;;;;;;2.47;1.10;;;8.10;99.90;;;;;;5013891;28;20472;-74
2022/12/30 13:29:54;;;;;;;1.30;0.70;;;8.10;99.90;;;;;;5032513;28;20457;-78
2022/12/30 13:32:45;;;;;;;1.30;0.63;;;8.10;99.90;;;;;;5006859;28;20959;-74
2022/12/30 13:35:19;;;;;;;1.90;0.50;;;8.10;99.90;;;;;;5015571;28;20463;-75
2022/12/30 13:37:57;;;;;;;1.93;0.70;;;8.10;99.90;;;;;;5033230;28;20471;-75
2022/12/30 13:40:27;;;;;;;1.50;0.77;;;8.10;99.90;;;;;;5034749;28;20427;-74
2022/12/30 13:43:06;;;;;;;1.93;0.80;;;8.10;99.90;;;;;;5031890;28;20464;-76
2022/12/30 13:45:41;;;;;;;3.67;1.03;;;8.10;99.90;;;;;;5033922;28;20508;-74
2022/12/30 13:48:10;;;;;;;1.93;0.77;;;8.10;99.90;;;;;;5021166;28;20478;-75
2022/12/30 13:50:37;;;;;;;3.03;0.93;;;8.10;99.90;;;;;;5032997;28;20428;-75
2022/12/30 13:53:05;;;;;;;1.47;0.67;;;8.20;99.90;;;;;;5019451;28;20440;-75
2022/12/30 13:55:36;;;;;;;3.20;1.70;;;8.00;99.90;;;;;;5012995;28;20430;-75
2022/12/30 13:58:29;;;;;;;2.03;1.33;;;8.00;99.90;;;;;;5012852;28;20532;-73
2022/12/30 14:01:19;;;;;;;3.80;1.40;;;8.00;99.90;;;;;;5025518;28;20978;-74
2022/12/30 14:03:46;;;;;;;3.60;1.00;;;8.00;99.90;;;;;;5024993;28;20460;-75
2022/12/30 14:06:43;;;;;;;4.90;1.90;;;8.00;99.90;;;;;;5034479;28;20443;-74
2022/12/30 14:09:29;;;;;;;2.80;1.00;;;7.90;99.90;;;;;;5021318;28;20410;-75
2022/12/30 14:12:04;;;;;;;2.37;1.43;;;7.90;99.90;;;;;;5029862;28;20418;-74
2022/12/30 14:14:37;;;;;;;3.83;1.43;;;7.80;99.90;;;;;;5001806;28;20453;-74